Time;durP1;ratioP1;P1;durP2;ratioP2;P2;SDS_P1;SDS_P2;PMS_P1;PMS_P2;Temp;Humidity;BMP_temperature;BMP_pressure;BME280_temperature;BME280_humidity;BME280_pressure;Samples;Min_cycle;Max_cycle;Signal;HPM_P1;HPM_P2
2021/12/22 00:00:09;;;;;;;9.73;5.97;;;;;;;-3.75;79.60;100464.72;5013219;28;20026;-75
2021/12/22 00:02:35;;;;;;;8.13;5.80;;;;;;;-3.71;78.92;100452.78;5014585;28;20041;-77
2021/12/22 00:05:01;;;;;;;8.63;5.80;;;;;;;-3.70;78.64;100462.25;4995723;28;20043;-77
2021/12/22 00:07:26;;;;;;;12.83;5.57;;;;;;;-3.76;79.23;100463.00;5010342;28;20013;-77
2021/12/22 00:09:52;;;;;;;8.43;6.17;;;;;;;-3.74;78.79;100458.75;5013653;28;20053;-77
2021/12/22 00:12:17;;;;;;;10.13;6.20;;;;;;;-3.74;78.74;100448.44;5013064;28;20022;-77
2021/12/22 00:14:43;;;;;;;9.83;5.23;;;;;;;-3.77;79.37;100461.25;4991504;28;20054;-77
2021/12/22 00:17:08;;;;;;;8.80;5.67;;;;;;;-3.71;79.45;100453.66;5010925;28;20049;-76
2021/12/22 00:19:34;;;;;;;8.97;5.50;;;;;;;-3.72;78.69;100446.75;5009298;28;20038;-76
2021/12/22 00:21:59;;;;;;;8.87;4.97;;;;;;;-3.71;78.66;100453.66;5010040;28;20069;-76
2021/12/22 00:24:25;;;;;;;10.00;5.43;;;;;;;-3.72;78.60;100457.03;5007875;28;20746;-77
2021/12/22 00:26:52;;;;;;;9.73;5.97;;;;;;;-3.74;78.84;100465.59;5008817;28;20066;-75
2021/12/22 00:29:18;;;;;;;8.57;5.40;;;;;;;-3.80;78.03;100466.34;5004423;28;20046;-74
2021/12/22 00:31:56;;;;;;;10.30;5.20;;;;;;;-3.84;78.52;100458.53;4992762;28;20076;-76
2021/12/22 00:34:24;;;;;;;9.33;4.97;;;;;;;-3.78;79.09;100451.78;4976274;28;20112;-75
2021/12/22 00:36:49;;;;;;;9.33;4.43;;;;;;;-3.70;79.26;100452.78;4974136;28;20038;-76
2021/12/22 00:39:15;;;;;;;8.47;3.60;;;;;;;-3.71;78.41;100452.78;4974733;28;20042;-74
2021/12/22 00:41:40;;;;;;;8.63;4.93;;;;;;;-3.77;78.30;100452.66;4974643;28;20026;-74
2021/12/22 00:44:05;;;;;;;9.60;4.73;;;;;;;-3.86;78.09;100455.94;4974511;28;20177;-77
2021/12/22 00:46:31;;;;;;;10.17;5.47;;;;;;;-3.93;79.21;100454.06;4973543;28;20053;-78
2021/12/22 00:48:56;;;;;;;10.47;6.07;;;;;;;-3.94;78.20;100447.16;4991205;28;20038;-74
2021/12/22 00:51:22;;;;;;;9.60;5.27;;;;;;;-3.99;79.38;100452.22;4973871;28;20038;-75
2021/12/22 00:53:47;;;;;;;9.00;5.40;;;;;;;-4.05;78.76;100440.94;4991876;28;20045;-76
2021/12/22 00:56:13;;;;;;;9.20;3.87;;;;;;;-4.04;80.13;100440.09;4973316;28;20032;-75
2021/12/22 00:58:38;;;;;;;8.10;3.93;;;;;;;-4.03;79.77;100440.13;4990724;28;20049;-75
2021/12/22 01:01:04;;;;;;;7.13;4.10;;;;;;;-4.01;79.78;100443.63;4991078;28;20042;-75
2021/12/22 01:03:30;;;;;;;11.53;5.17;;;;;;;-4.02;79.30;100441.00;4991311;28;20042;-74
2021/12/22 01:05:55;;;;;;;8.67;4.20;;;;;;;-4.03;78.46;100442.72;4990523;28;20517;-74
2021/12/22 01:08:21;;;;;;;6.73;3.60;;;;;;;-4.09;78.94;100440.00;4990136;28;20128;-74
2021/12/22 01:10:48;;;;;;;7.80;3.90;;;;;;;-4.06;79.58;100441.75;4991395;28;20066;-74
2021/12/22 01:13:13;;;;;;;9.83;5.07;;;;;;;-4.02;79.17;100447.00;4991323;28;20406;-74
2021/12/22 01:15:39;;;;;;;5.77;4.17;;;;;;;-3.98;79.13;100438.53;4990048;28;20486;-77
2021/12/22 01:18:14;;;;;;;9.13;3.77;;;;;;;-3.96;78.82;100448.88;4972638;28;20050;-76
2021/12/22 01:21:22;;;;;;;13.00;4.35;;;;;;;-3.96;79.04;100447.16;4990490;28;20034;-75
2021/12/22 01:23:40;;;;;;;7.40;4.03;;;;;;;-3.94;78.60;100449.75;4988663;28;20038;-76
2021/12/22 01:26:07;;;;;;;4.87;2.87;;;;;;;-3.93;78.97;100452.34;4990354;28;20039;-75
2021/12/22 01:28:40;;;;;;;10.03;4.23;;;;;;;-3.91;79.42;100453.25;4990619;28;20031;-75
2021/12/22 01:31:06;;;;;;;7.57;3.60;;;;;;;-3.90;79.30;100469.56;4973843;28;20100;-74
2021/12/22 01:33:31;;;;;;;8.07;3.90;;;;;;;-3.94;78.14;100470.34;4991039;28;20494;-75
2021/12/22 01:35:57;;;;;;;7.13;4.13;;;;;;;-3.98;79.03;100469.44;4997789;28;20038;-76
2021/12/22 01:38:22;;;;;;;8.30;4.13;;;;;;;-4.06;77.87;100468.41;4981394;28;20139;-75
2021/12/22 01:40:48;;;;;;;5.70;3.53;;;;;;;-4.12;78.65;100465.69;4999718;28;20514;-75
2021/12/22 01:43:14;;;;;;;8.67;4.33;;;;;;;-4.14;79.31;100467.34;4981942;28;20045;-74
2021/12/22 01:51:08;;;;;;;7.17;3.83;;;;;;;-4.14;78.81;100464.78;4992231;28;19920;-74
2021/12/22 01:53:44;;;;;;;4.73;2.87;;;;;;;-4.13;79.51;100472.56;4992259;28;20042;-75
2021/12/22 01:56:20;;;;;;;;;;;;;;;-4.14;79.69;100464.78;4990666;28;20054;-74
2021/12/22 01:58:49;;;;;;;7.57;3.53;;;;;;;-4.14;78.64;100465.66;4990718;28;20270;-74
2021/12/22 02:01:15;;;;;;;4.87;2.80;;;;;;;-4.14;78.64;100467.34;4955865;28;20050;-74
2021/12/22 02:03:42;;;;;;;6.57;3.20;;;;;;;-4.19;78.63;100461.25;4989253;28;20026;-74
2021/12/22 02:06:08;;;;;;;6.03;3.33;;;;;;;-4.29;79.05;100447.31;4989318;28;20046;-75
2021/12/22 02:08:35;;;;;;;5.43;3.47;;;;;;;-4.28;80.00;100446.50;4990061;28;20034;-75
2021/12/22 02:11:01;;;;;;;6.47;2.90;;;;;;;-4.24;79.63;100449.97;4989873;28;20089;-75
2021/12/22 02:13:32;;;;;;;5.00;2.97;;;;;;;-4.23;79.38;100446.56;4990679;28;20030;-75
2021/12/22 02:16:06;;;;;;;15.03;3.50;;;;;;;-4.20;80.01;100444.06;4990079;28;20034;-74
2021/12/22 02:18:34;;;;;;;5.13;3.10;;;;;;;-4.16;79.28;100451.91;4989816;28;20039;-74
2021/12/22 02:20:59;;;;;;;6.60;3.10;;;;;;;-4.14;78.61;100450.19;4987268;28;20042;-74
2021/12/22 02:23:25;;;;;;;4.90;2.97;;;;;;;-4.13;78.29;100461.38;4990505;28;20089;-74
2021/12/22 02:25:55;;;;;;;4.67;2.60;;;;;;;-4.13;77.87;100457.09;4987437;28;20048;-74
2021/12/22 02:28:26;;;;;;;9.73;3.53;;;;;;;-4.15;77.77;100458.78;4989472;28;20034;-74
2021/12/22 02:30:52;;;;;;;6.43;2.90;;;;;;;-4.23;78.30;100452.59;4989147;28;20045;-75
2021/12/22 02:33:35;;;;;;;6.57;3.33;;;;;;;-4.32;78.03;100444.69;4989991;28;20085;-74
2021/12/22 02:36:09;;;;;;;5.90;3.17;;;;;;;-4.45;78.72;100448.69;4988332;28;20534;-75
2021/12/22 02:38:37;;;;;;;5.80;3.20;;;;;;;-4.49;79.72;100446.00;4989502;28;20065;-75
2021/12/22 02:41:04;;;;;;;6.90;3.40;;;;;;;-4.45;78.39;100445.25;4989968;28;20398;-74
2021/12/22 02:43:33;;;;;;;10.90;3.10;;;;;;;-4.46;79.03;100446.06;4991125;28;20042;-74
2021/12/22 02:46:00;;;;;;;5.33;3.30;;;;;;;-4.43;78.71;100440.97;5001498;28;20530;-74
2021/12/22 02:48:32;;;;;;;4.83;2.53;;;;;;;-4.39;78.66;100437.66;5001159;28;20026;-74
2021/12/22 02:51:00;;;;;;;6.00;2.97;;;;;;;-4.32;78.95;100435.25;4984417;28;20026;-75
2021/12/22 02:53:38;;;;;;;4.80;2.90;;;;;;;-4.26;78.04;100436.19;4984676;28;20030;-74
2021/12/22 02:56:16;;;;;;;7.27;3.07;;;;;;;-4.32;78.82;100442.09;4982600;28;20039;-75
2021/12/22 02:58:57;;;;;;;3.93;2.60;;;;;;;-4.32;78.50;100439.53;4970457;28;20088;-76
2021/12/22 03:03:59;;;;;;;5.77;2.60;;;;;;;-4.32;77.94;100449.81;4969587;28;20038;-75
2021/12/22 03:06:34;;;;;;;5.10;2.92;;;;;;;-4.34;78.62;100447.19;4953583;28;20038;-75
2021/12/22 03:09:16;;;;;;;6.95;3.97;;;;;;;-4.30;77.84;100442.16;4963215;28;20118;-78
2021/12/22 03:11:42;;;;;;;8.60;2.70;;;;;;;-4.29;78.04;100441.28;4971065;28;20034;-75
2021/12/22 03:14:07;;;;;;;6.73;3.30;;;;;;;-4.30;77.23;100442.16;4989432;28;20406;-74
2021/12/22 03:16:33;;;;;;;5.87;2.60;;;;;;;-4.32;77.61;100442.09;4988342;28;20061;-75
2021/12/22 03:18:58;;;;;;;8.73;3.63;;;;;;;-4.36;77.75;100438.56;4989282;28;20038;-76
2021/12/22 03:21:23;;;;;;;7.93;3.07;;;;;;;-4.40;77.32;100436.78;4972010;28;20430;-76
2021/12/22 03:23:51;;;;;;;5.67;2.60;;;;;;;-4.36;77.98;100442.84;4997453;28;20054;-75
2021/12/22 03:26:18;;;;;;;8.17;3.30;;;;;;;-4.33;78.50;100446.38;4980736;28;20049;-75
2021/12/22 03:28:47;;;;;;;5.10;3.20;;;;;;;-4.31;78.07;100438.69;4997553;28;20041;-74
2021/12/22 03:31:14;;;;;;;4.53;2.60;;;;;;;-4.37;77.89;100439.41;4989649;28;20069;-75
2021/12/22 03:33:40;;;;;;;8.80;3.50;;;;;;;-4.38;78.11;100434.22;4972496;28;20037;-75
2021/12/22 03:36:06;;;;;;;5.63;3.20;;;;;;;-4.38;78.40;100431.66;4989293;28;20112;-75
2021/12/22 03:38:36;;;;;;;5.80;2.60;;;;;;;-4.41;78.20;100431.59;4990240;28;20050;-75
2021/12/22 03:41:03;;;;;;;4.50;3.17;;;;;;;-4.40;77.41;100446.22;4957991;28;20046;-75
2021/12/22 03:43:29;;;;;;;5.30;2.90;;;;;;;-4.38;77.28;100432.56;4991644;28;20081;-77
2021/12/22 03:45:54;;;;;;;6.50;2.93;;;;;;;-4.42;78.25;100422.16;4990715;28;20450;-77
2021/12/22 03:48:21;;;;;;;8.30;2.97;;;;;;;-4.44;77.10;100419.53;4991512;28;20445;-76
2021/12/22 03:50:46;;;;;;;4.67;2.47;;;;;;;-4.45;76.75;100428.09;4992985;28;20041;-75
2021/12/22 03:53:12;;;;;;;3.73;2.30;;;;;;;-4.50;77.43;100431.38;5003477;28;20050;-75
2021/12/22 03:55:38;;;;;;;6.27;2.93;;;;;;;-4.57;77.63;100431.28;4987203;28;20062;-75
2021/12/22 03:58:04;;;;;;;6.27;3.13;;;;;;;-4.56;78.02;100438.13;4978052;28;20034;-75
2021/12/22 04:00:30;;;;;;;4.63;2.47;;;;;;;-4.59;78.34;100432.06;4998297;28;20042;-75
2021/12/22 04:02:56;;;;;;;4.13;2.57;;;;;;;-4.58;77.34;100437.25;5001965;28;20054;-75
2021/12/22 04:05:22;;;;;;;6.07;2.50;;;;;;;-4.60;77.55;100441.50;4993554;28;20042;-76
2021/12/22 04:07:48;;;;;;;4.60;2.03;;;;;;;-4.65;77.89;100440.53;4992417;28;20508;-75
2021/12/22 04:10:21;;;;;;;2.87;1.67;;;;;;;-4.66;78.35;100441.34;4992501;28;20398;-76
2021/12/22 04:12:55;;;;;;;4.30;2.43;;;;;;;-4.62;78.55;100445.72;4984248;28;20030;-75
2021/12/22 04:15:25;;;;;;;3.77;2.40;;;;;;;-4.61;77.20;100444.88;4955292;28;20098;-76
2021/12/22 04:17:51;;;;;;;5.30;2.80;;;;;;;-4.59;77.86;100448.38;4973404;28;20143;-74
2021/12/22 04:20:17;;;;;;;4.53;2.60;;;;;;;-4.57;78.29;100449.28;4973743;28;20063;-76
2021/12/22 04:22:42;;;;;;;3.50;2.10;;;;;;;-4.62;77.25;100456.03;4975254;28;20027;-75
2021/12/22 04:25:09;;;;;;;3.87;2.13;;;;;;;-4.63;78.10;100450.84;4977609;28;20550;-76
2021/12/22 04:27:36;;;;;;;7.13;2.80;;;;;;;-4.65;77.41;100449.94;4977795;28;20438;-76
2021/12/22 04:30:05;;;;;;;12.80;3.77;;;;;;;-4.74;77.41;100453.16;4977004;28;20035;-76
2021/12/22 04:32:30;;;;;;;6.43;2.43;;;;;;;-4.78;77.44;100454.78;4974021;28;20055;-76
2021/12/22 04:34:56;;;;;;;4.37;2.17;;;;;;;-4.80;78.18;100456.47;4979565;28;20062;-74
2021/12/22 04:37:21;;;;;;;5.70;2.10;;;;;;;-4.81;78.21;100467.56;4977828;28;20065;-75
2021/12/22 04:39:46;;;;;;;6.43;2.80;;;;;;;-4.80;78.46;100461.63;4973838;28;20038;-75
2021/12/22 04:42:12;;;;;;;5.33;2.57;;;;;;;-4.82;78.66;100472.72;4974842;28;20050;-75
2021/12/22 04:44:37;;;;;;;4.10;2.50;;;;;;;-4.81;78.38;100469.28;4974552;28;20130;-75
2021/12/22 04:47:05;;;;;;;4.23;2.10;;;;;;;-4.90;77.45;100469.06;4973055;28;20057;-74
2021/12/22 04:49:31;;;;;;;4.37;2.07;;;;;;;-4.88;78.79;100467.41;4974428;28;20456;-75
2021/12/22 04:51:58;;;;;;;5.33;2.43;;;;;;;-4.86;78.64;100460.59;4972986;28;20046;-75
2021/12/22 04:56:52;;;;;;;4.43;2.63;;;;;;;-4.86;77.86;100455.44;4991151;28;20478;-74
2021/12/22 04:59:17;;;;;;;5.73;2.60;;;;;;;-4.88;78.31;100457.13;4974142;28;20097;-75
2021/12/22 05:01:43;;;;;;;3.83;2.27;;;;;;;-4.89;78.66;100455.38;4991529;28;20057;-76
2021/12/22 05:04:08;;;;;;;3.70;1.80;;;;;;;-4.88;78.52;100457.97;4991604;28;20050;-76
2021/12/22 05:06:35;;;;;;;2.67;2.00;;;;;;;-4.89;78.23;100456.25;4992901;28;20112;-75
2021/12/22 05:09:00;;;;;;;3.57;2.10;;;;;;;-4.89;77.90;100460.53;4994296;28;20046;-77
2021/12/22 05:11:26;;;;;;;4.27;1.87;;;;;;;-4.90;78.12;100458.78;4992752;28;20042;-76
2021/12/22 05:13:51;;;;;;;7.63;4.50;;;;;;;-4.89;78.60;100455.38;4993024;28;20069;-75
2021/12/22 05:16:18;;;;;;;5.27;2.80;;;;;;;-4.91;78.15;100457.91;4991127;28;20494;-74
2021/12/22 05:18:57;;;;;;;5.67;3.03;;;;;;;-4.96;77.13;100449.22;4990058;28;20030;-75
2021/12/22 05:21:24;;;;;;;5.27;3.30;;;;;;;-5.06;77.87;100449.84;4973579;28;20057;-76
2021/12/22 05:23:51;;;;;;;5.17;2.90;;;;;;;-5.10;77.97;100451.44;4990843;28;20049;-75
2021/12/22 05:26:17;;;;;;;5.13;3.50;;;;;;;-5.15;79.31;100452.16;4989948;28;20072;-76
2021/12/22 05:28:42;;;;;;;5.27;3.03;;;;;;;-5.12;79.13;100458.25;4990463;28;20038;-73
2021/12/22 05:31:08;;;;;;;4.57;2.33;;;;;;;-5.10;78.43;100445.44;4991007;28;20108;-75
2021/12/22 05:33:33;;;;;;;4.60;3.20;;;;;;;-5.08;78.45;100439.50;4991409;28;20049;-77
2021/12/22 05:35:58;;;;;;;6.77;3.57;;;;;;;-5.09;78.39;100444.63;4990310;28;20036;-76
2021/12/22 05:38:24;;;;;;;6.47;3.67;;;;;;;-5.08;79.06;100444.66;4973531;28;20034;-75
2021/12/22 05:40:49;;;;;;;11.67;3.60;;;;;;;-5.04;79.14;100449.03;4990449;28;20030;-75
2021/12/22 05:43:15;;;;;;;4.03;2.30;;;;;;;-5.00;78.38;100440.53;4990418;28;20121;-77
2021/12/22 05:45:40;;;;;;;4.47;2.10;;;;;;;-4.98;78.84;100443.16;4989504;28;20133;-75
2021/12/22 05:48:06;;;;;;;6.03;2.73;;;;;;;-4.94;78.95;100449.28;4990746;28;20486;-75
2021/12/22 05:50:31;;;;;;;4.20;2.97;;;;;;;-4.92;78.08;100448.47;4991483;28;20034;-75
2021/12/22 05:52:57;;;;;;;5.30;3.80;;;;;;;-4.96;77.64;100444.94;4991423;28;20121;-74
2021/12/22 05:55:22;;;;;;;6.70;2.30;;;;;;;-4.98;78.11;100440.59;4991246;28;20038;-74
2021/12/22 05:57:48;;;;;;;3.03;2.03;;;;;;;-4.98;78.29;100438.88;4973144;28;20030;-75
2021/12/22 06:00:14;;;;;;;6.77;2.57;;;;;;;-4.97;78.63;100434.63;4990516;28;20054;-77
2021/12/22 06:02:39;;;;;;;6.00;3.17;;;;;;;-5.01;78.15;100430.25;4991289;28;20401;-76
2021/12/22 06:05:06;;;;;;;4.43;2.33;;;;;;;-5.01;77.65;100433.69;4991604;28;20038;-77
2021/12/22 06:07:31;;;;;;;2.93;1.97;;;;;;;-4.99;78.58;100428.59;4990524;28;20117;-75
2021/12/22 06:09:57;;;;;;;5.33;2.60;;;;;;;-4.99;77.86;100428.59;4990803;28;20185;-75
2021/12/22 06:12:22;;;;;;;3.00;1.93;;;;;;;-4.96;77.97;100424.38;4990639;28;20042;-75
2021/12/22 06:14:47;;;;;;;2.30;1.60;;;;;;;-4.93;77.59;100430.41;4990234;28;20119;-75
2021/12/22 06:17:14;;;;;;;5.50;2.60;;;;;;;-4.94;78.11;100421.84;4989834;28;20173;-75
2021/12/22 06:19:39;;;;;;;6.17;2.70;;;;;;;-4.94;77.73;100429.56;4990526;28;20038;-75
2021/12/22 06:22:04;;;;;;;4.50;2.67;;;;;;;-4.99;76.88;100419.16;4989574;28;20046;-75
2021/12/22 06:24:30;;;;;;;5.77;2.33;;;;;;;-5.07;78.28;100415.56;4989641;28;20056;-77
2021/12/22 06:26:57;;;;;;;14.13;3.90;;;;;;;-5.03;77.74;100421.63;4972390;28;20035;-75
2021/12/22 06:29:22;;;;;;;3.83;2.43;;;;;;;-4.97;78.56;100417.50;4989551;28;20117;-77
2021/12/22 06:31:48;;;;;;;3.17;2.00;;;;;;;-5.02;77.77;100408.81;4955987;28;20121;-77
2021/12/22 06:34:16;;;;;;;4.70;2.70;;;;;;;-5.02;76.94;100413.97;4971168;28;20034;-76
2021/12/22 06:36:41;;;;;;;3.27;2.47;;;;;;;-5.04;77.13;100419.91;4989448;28;20061;-76
2021/12/22 06:39:07;;;;;;;9.33;2.87;;;;;;;-4.98;77.76;100420.03;4990334;28;20038;-77
2021/12/22 06:41:33;;;;;;;3.83;2.30;;;;;;;-4.95;77.32;100417.53;4989847;28;20440;-76
2021/12/22 06:43:58;;;;;;;5.30;2.20;;;;;;;-4.93;77.75;100412.44;4972180;28;20050;-74
2021/12/22 06:46:24;;;;;;;4.23;2.43;;;;;;;-4.88;77.95;100410.81;4988358;28;20042;-76
2021/12/22 06:48:49;;;;;;;6.70;3.37;;;;;;;-4.86;77.56;100414.31;4989283;28;20125;-76
2021/12/22 06:51:15;;;;;;;6.27;2.77;;;;;;;-4.87;76.93;100418.59;4989080;28;20084;-77
2021/12/22 06:53:40;;;;;;;7.43;3.13;;;;;;;-4.88;78.32;100415.97;4972146;28;20104;-74
2021/12/22 06:56:05;;;;;;;5.00;2.30;;;;;;;-4.85;77.80;100416.03;4988417;28;20034;-77
2021/12/22 06:58:31;;;;;;;3.90;2.63;;;;;;;-4.82;77.60;100416.13;4990233;28;20052;-76
2021/12/22 07:00:57;;;;;;;9.00;3.43;;;;;;;-4.83;78.07;100411.81;4990573;28;20076;-77
2021/12/22 07:03:22;;;;;;;5.17;2.60;;;;;;;-4.83;77.83;100409.22;4990584;28;20320;-77
2021/12/22 07:05:48;;;;;;;6.57;3.50;;;;;;;-4.80;77.09;100412.75;4972359;28;20117;-75
2021/12/22 07:08:13;;;;;;;8.57;3.03;;;;;;;-4.80;76.68;100407.63;4999561;28;20053;-76
2021/12/22 07:10:38;;;;;;;8.40;2.87;;;;;;;-4.81;76.57;100403.28;4999314;28;20038;-76
2021/12/22 07:13:04;;;;;;;6.20;2.63;;;;;;;-4.83;77.68;100401.50;4972358;28;20549;-75
2021/12/22 07:15:30;;;;;;;4.40;2.53;;;;;;;-4.86;77.82;100397.16;4956238;28;20499;-74
2021/12/22 07:17:56;;;;;;;10.70;5.23;;;;;;;-4.81;77.71;100405.00;4972551;28;20038;-77
2021/12/22 07:20:21;;;;;;;7.73;3.23;;;;;;;-4.77;76.88;100399.97;4983645;28;20045;-76
2021/12/22 07:22:47;;;;;;;4.97;2.80;;;;;;;-4.72;77.02;100406.91;4973333;28;20046;-76
2021/12/22 07:25:14;;;;;;;6.60;3.53;;;;;;;-4.73;76.87;100394.88;4971808;28;20455;-77
2021/12/22 07:27:39;;;;;;;5.80;2.80;;;;;;;-4.74;76.39;100396.59;4994163;28;20117;-75
2021/12/22 07:30:06;;;;;;;7.10;3.23;;;;;;;-4.77;77.22;100397.38;4996125;28;20089;-75
2021/12/22 07:32:32;;;;;;;10.03;3.83;;;;;;;-4.76;76.85;100405.97;4993925;28;20109;-76
2021/12/22 07:35:09;;;;;;;4.00;2.63;;;;;;;-4.74;76.47;100404.31;4978745;28;20490;-77
2021/12/22 07:37:45;;;;;;;4.83;2.60;;;;;;;-4.69;77.18;100413.00;4997766;28;20050;-75
2021/12/22 07:40:14;;;;;;;3.27;2.10;;;;;;;-4.67;76.07;100401.03;4994418;28;20038;-76
2021/12/22 07:42:40;;;;;;;2.60;1.70;;;;;;;-4.63;76.26;100407.09;4994767;28;20505;-74
2021/12/22 07:45:06;;;;;;;3.57;2.03;;;;;;;-4.61;76.05;100406.28;4993442;28;20042;-77
2021/12/22 07:47:32;;;;;;;24.27;3.97;;;;;;;-4.58;76.60;100415.78;4993424;28;20046;-75
2021/12/22 07:49:57;;;;;;;5.20;2.70;;;;;;;-4.57;76.25;100418.41;4993073;28;20042;-74
2021/12/22 07:52:27;;;;;;;7.37;2.60;;;;;;;-4.59;75.65;100422.66;4976554;28;20046;-76
2021/12/22 07:54:54;;;;;;;5.80;3.23;;;;;;;-4.58;75.96;100415.78;4975992;28;20042;-77
2021/12/22 07:57:19;;;;;;;7.03;3.43;;;;;;;-4.59;75.69;100419.22;4976374;28;20034;-75
2021/12/22 07:59:44;;;;;;;7.83;3.87;;;;;;;-4.57;76.05;100420.13;4999761;28;20057;-73
2021/12/22 08:02:10;;;;;;;10.07;4.10;;;;;;;-4.58;76.14;100426.06;4980602;28;20109;-75
2021/12/22 08:04:36;;;;;;;9.63;4.83;;;;;;;-4.60;76.36;100413.19;4994875;28;20525;-75
2021/12/22 08:07:02;;;;;;;6.17;3.67;;;;;;;-4.59;76.33;100414.94;4975001;28;20478;-76
2021/12/22 08:09:27;;;;;;;6.17;4.33;;;;;;;-4.56;76.49;100407.25;4993354;28;20106;-76
2021/12/22 08:11:54;;;;;;;9.87;4.70;;;;;;;-4.53;76.63;100409.94;4993051;28;20422;-76
2021/12/22 08:14:22;;;;;;;11.63;5.30;;;;;;;-4.47;76.32;100408.31;4992427;28;20040;-73
2021/12/22 08:16:47;;;;;;;11.17;6.93;;;;;;;-4.40;76.31;100405.91;4982248;28;20042;-75
2021/12/22 08:19:13;;;;;;;10.30;5.77;;;;;;;-4.26;75.87;100408.75;4975612;28;20042;-76
2021/12/22 08:21:38;;;;;;;9.00;5.03;;;;;;;-4.16;75.85;100404.66;4993066;28;20575;-76
2021/12/22 08:24:04;;;;;;;9.30;5.33;;;;;;;-4.03;74.95;100409.25;4974588;28;20097;-75
2021/12/22 08:26:29;;;;;;;11.93;5.87;;;;;;;-3.92;74.96;100417.16;4992308;28;20410;-75
2021/12/22 08:28:55;;;;;;;7.10;4.20;;;;;;;-3.89;75.33;100414.63;4992088;28;20042;-74
2021/12/22 08:31:20;;;;;;;5.13;3.33;;;;;;;-3.87;74.48;100405.25;4975070;28;20038;-76
2021/12/22 08:33:47;;;;;;;6.53;3.47;;;;;;;-3.86;74.22;100411.25;4994123;28;20130;-77
2021/12/22 08:39:00;;;;;;;7.33;4.20;;;;;;;-3.70;73.62;100410.72;4999258;28;20174;-75
2021/12/22 08:41:31;;;;;;;5.47;2.93;;;;;;;-3.59;73.30;100398.91;4999219;28;20050;-76
2021/12/22 08:44:00;;;;;;;5.73;2.77;;;;;;;-3.49;73.10;100399.94;5001759;28;20049;-75
2021/12/22 08:46:26;;;;;;;5.53;3.93;;;;;;;-3.49;73.61;100389.63;4985282;28;20030;-74
2021/12/22 08:48:52;;;;;;;6.37;3.90;;;;;;;-3.48;74.32;100381.03;5003136;28;20114;-75
2021/12/22 08:51:17;;;;;;;5.00;3.90;;;;;;;-3.41;74.25;100388.03;4999501;28;20038;-75
2021/12/22 08:53:43;;;;;;;4.30;2.83;;;;;;;-3.35;74.35;100388.13;4992016;28;20034;-76
2021/12/22 08:56:08;;;;;;;5.23;3.07;;;;;;;-3.25;73.67;100379.72;4991338;28;20557;-75
2021/12/22 08:58:34;;;;;;;3.83;2.60;;;;;;;-3.13;74.22;100378.16;4991945;28;20034;-76
2021/12/22 09:01:01;;;;;;;5.53;2.80;;;;;;;-2.99;73.52;100380.97;4991880;28;20046;-76
2021/12/22 09:03:26;;;;;;;4.45;2.85;;;;;;;-2.86;73.40;100378.59;4981165;28;20042;-75
2021/12/22 09:05:52;;;;;;;3.92;2.63;;;;;;;-2.70;73.43;100384.00;4973569;28;20034;-74
2021/12/22 09:08:17;;;;;;;6.75;3.33;;;;;;;-2.60;72.31;100371.22;4992730;28;20055;-76
2021/12/22 09:10:42;;;;;;;3.58;2.20;;;;;;;-2.51;72.72;100375.66;4992538;28;20042;-76
2021/12/22 09:13:08;;;;;;;7.25;3.58;;;;;;;-2.38;73.16;100372.38;4992866;28;20034;-76
2021/12/22 09:15:33;;;;;;;6.90;3.20;;;;;;;-2.18;72.78;100379.50;4993995;28;20129;-75
2021/12/22 09:17:59;;;;;;;6.88;3.15;;;;;;;-2.03;71.84;100376.22;4976718;28;20037;-76
2021/12/22 09:20:24;;;;;;;6.88;4.43;;;;;;;-1.90;71.77;100382.38;4995382;28;20034;-77
2021/12/22 09:22:50;;;;;;;4.57;3.17;;;;;;;-1.85;71.86;100386.75;4978160;28;20043;-76
2021/12/22 09:25:15;;;;;;;5.55;3.22;;;;;;;-1.68;71.79;100379.19;4994095;28;20125;-74
2021/12/22 09:27:41;;;;;;;8.38;3.30;;;;;;;-1.51;71.45;100380.19;4993641;28;20125;-77
2021/12/22 09:30:08;;;;;;;8.10;5.60;;;;;;;-1.34;71.51;100379.50;4993418;28;20050;-74
2021/12/22 09:32:33;;;;;;;6.75;3.83;;;;;;;-0.75;69.81;100381.66;4991325;28;20054;-76
2021/12/22 09:34:58;;;;;;;6.65;4.22;;;;;;;0.06;68.07;100381.19;4990591;28;20490;-76
2021/12/22 09:37:24;;;;;;;9.55;4.43;;;;;;;0.95;66.48;100378.69;4972787;28;20042;-76
2021/12/22 09:39:49;;;;;;;11.57;4.85;;;;;;;1.91;62.83;100375.00;4989934;28;20038;-76
2021/12/22 09:42:15;;;;;;;9.30;4.68;;;;;;;2.46;61.03;100384.25;4973514;28;20184;-75
2021/12/22 09:44:46;;;;;;;14.15;5.10;;;;;;;2.84;59.62;100383.09;4989762;28;20041;-76
2021/12/22 09:47:14;;;;;;;9.80;5.63;;;;;;;3.09;58.96;100381.13;4973106;28;20117;-77
2021/12/22 09:52:23;;;;;;;7.07;4.55;;;;;;;3.36;56.67;100376.53;4990615;28;20398;-75
2021/12/22 09:54:53;;;;;;;7.30;5.32;;;;;;;3.50;55.72;100364.25;4989470;28;20057;-76
2021/12/22 09:57:20;;;;;;;6.90;4.18;;;;;;;3.79;55.77;100363.00;4964234;28;20034;-74
2021/12/22 09:59:48;;;;;;;7.95;5.53;;;;;;;3.88;55.20;100362.91;4979899;28;20035;-76
2021/12/22 10:02:15;;;;;;;5.85;3.78;;;;;;;4.15;56.05;100360.81;4989628;28;20045;-77
2021/12/22 10:04:41;;;;;;;8.27;4.57;;;;;;;4.26;54.80;100353.72;4989979;28;20038;-76
2021/12/22 10:07:08;;;;;;;9.90;4.53;;;;;;;4.59;54.18;100349.72;4990329;28;20044;-76
2021/12/22 10:09:43;;;;;;;7.65;4.70;;;;;;;4.61;53.51;100352.34;4989993;28;20042;-77
2021/12/22 10:12:14;;;;;;;12.70;4.75;;;;;;;4.25;55.01;100351.97;4990073;28;20038;-76
2021/12/22 10:14:51;;;;;;;11.15;6.30;;;;;;;4.19;55.46;100342.50;4972392;28;20030;-76
2021/12/22 10:17:35;;;;;;;14.55;7.95;;;;;;;4.24;55.31;100339.84;4990055;28;20030;-76
2021/12/22 10:20:14;;;;;;;16.70;6.82;;;;;;;4.09;55.81;100356.56;4990132;28;20121;-76
2021/12/22 10:22:43;;;;;;;12.57;6.32;;;;;;;3.84;56.58;100349.06;4990547;28;20057;-76
2021/12/22 10:25:15;;;;;;;9.43;5.78;;;;;;;3.62;57.56;100345.00;4992428;28;20046;-74
2021/12/22 10:27:44;;;;;;;17.38;7.43;;;;;;;3.44;57.18;100346.03;4994329;28;20038;-76
2021/12/22 10:30:34;;;;;;;9.07;6.15;;;;;;;3.18;58.61;100341.97;4991898;28;20041;-77
2021/12/22 10:33:27;;;;;;;13.50;8.25;;;;;;;3.01;59.28;100334.34;4991834;28;20057;-76
2021/12/22 10:36:08;;;;;;;18.88;11.38;;;;;;;2.83;59.91;100325.81;4966985;28;20030;-76
2021/12/22 10:38:34;;;;;;;18.45;10.32;;;;;;;2.71;61.62;100327.66;4989681;28;20034;-76
2021/12/22 10:41:10;;;;;;;15.63;9.95;;;;;;;2.79;61.49;100325.84;4989850;28;20395;-76
2021/12/22 10:43:42;;;;;;;16.85;8.68;;;;;;;2.75;60.89;100326.75;4971197;28;20030;-76
2021/12/22 10:46:14;;;;;;;15.00;7.80;;;;;;;2.57;62.02;100319.09;4988540;28;20399;-78
2021/12/22 10:51:31;;;;;;;18.33;8.80;;;;;;;2.47;62.45;100313.09;4987467;28;20100;-77
2021/12/22 10:53:58;;;;;;;14.02;6.78;;;;;;;2.49;62.99;100313.09;4987409;28;20423;-76
2021/12/22 10:56:31;;;;;;;25.77;9.40;;;;;;;2.41;63.20;100312.28;4986661;28;20124;-76
2021/12/22 10:58:59;;;;;;;16.75;9.23;;;;;;;2.42;63.86;100303.63;4988374;28;20034;-77
2021/12/22 11:01:25;;;;;;;13.27;6.75;;;;;;;2.49;62.37;100297.50;4987170;28;20042;-76
2021/12/22 11:04:03;;;;;;;14.25;7.28;;;;;;;2.50;63.06;100305.25;4987398;28;20022;-77
2021/12/22 11:06:31;;;;;;;12.02;7.03;;;;;;;2.55;62.57;100305.22;4986574;28;20045;-77
2021/12/22 11:09:10;;;;;;;11.23;5.03;;;;;;;2.62;62.83;100295.63;4987322;28;20042;-76
2021/12/22 11:12:05;;;;;;;12.80;4.63;;;;;;;2.66;59.00;100293.00;4987424;28;20101;-77
2021/12/22 11:14:34;;;;;;;11.57;5.72;;;;;;;2.82;59.14;100300.66;4982119;28;20054;-75
2021/12/22 11:17:00;;;;;;;6.65;3.45;;;;;;;2.85;54.19;100293.69;4986895;28;20058;-76
2021/12/22 11:19:38;;;;;;;6.40;3.45;;;;;;;2.88;54.13;100292.78;4987408;28;20068;-77
2021/12/22 11:22:12;;;;;;;10.60;3.42;;;;;;;2.93;53.31;100284.06;4953694;28;20128;-77
2021/12/22 11:24:50;;;;;;;5.55;3.40;;;;;;;2.97;52.96;100277.94;4986558;28;20038;-76
2021/12/22 11:27:20;;;;;;;7.18;3.05;;;;;;;2.86;51.11;100276.34;4986445;28;20038;-76
2021/12/22 11:29:54;;;;;;;3.92;2.40;;;;;;;2.85;48.64;100266.78;4988432;28;20383;-75
2021/12/22 11:32:30;;;;;;;6.13;2.78;;;;;;;2.85;48.65;100270.25;4990972;28;20065;-75
2021/12/22 11:35:00;;;;;;;;;;;;;;;2.86;48.80;100271.97;4992618;28;20041;-76
2021/12/22 11:37:27;;;;;;;6.10;2.70;;;;;;;2.92;48.95;100271.06;4994405;28;19926;-73
2021/12/22 11:39:54;;;;;;;4.50;2.20;;;;;;;2.98;48.78;100257.97;4992352;28;20486;-75
2021/12/22 11:42:24;;;;;;;6.00;2.63;;;;;;;2.99;48.12;100259.69;4970829;28;20508;-78
2021/12/22 11:44:55;;;;;;;5.65;2.42;;;;;;;2.95;45.85;100252.78;4986883;28;20042;-78
2021/12/22 11:47:21;;;;;;;3.85;2.42;;;;;;;2.90;44.90;100255.44;4987852;28;20026;-76